Time;durP1;ratioP1;P1;durP2;ratioP2;P2;SDS_P1;SDS_P2;PMS_P1;PMS_P2;Temp;Humidity;BMP_temperature;BMP_pressure;BME280_temperature;BME280_humidity;BME280_pressure;Samples;Min_cycle;Max_cycle;Signal;HPM_P1;HPM_P2
2022/01/07 00:02:15;;;;;;;41.80;5.90;;;6.70;99.90;;;;;;5058887;28;20131;-88
2022/01/07 00:04:40;;;;;;;11.70;4.90;;;6.40;99.90;;;;;;5075965;28;20036;-87
2022/01/07 00:07:08;;;;;;;9.68;4.78;;;7.40;99.90;;;;;;5075605;28;20101;-88
2022/01/07 00:09:36;;;;;;;11.68;4.88;;;6.40;99.90;;;;;;5075516;28;20048;-88
2022/01/07 00:12:04;;;;;;;10.55;4.72;;;4.30;99.90;;;;;;5075498;28;20131;-88
2022/01/07 00:14:30;;;;;;;16.27;5.03;;;4.40;99.90;;;;;;5058841;28;20070;-88
2022/01/07 00:16:56;;;;;;;7.93;3.90;;;5.50;99.90;;;;;;5058888;28;20074;-88
2022/01/07 00:19:22;;;;;;;6.88;4.30;;;6.40;99.90;;;;;;5058491;28;20051;-87
2022/01/07 00:21:47;;;;;;;12.55;4.47;;;7.00;99.90;;;;;;5075202;28;20084;-87
2022/01/07 00:24:14;;;;;;;11.38;4.63;;;6.70;99.90;;;;;;5074543;28;20451;-87
2022/01/07 00:26:39;;;;;;;11.18;5.32;;;4.80;99.90;;;;;;5075163;28;20084;-87
2022/01/07 00:29:05;;;;;;;9.95;4.50;;;7.10;99.90;;;;;;5062247;28;20044;-87
2022/01/07 00:31:33;;;;;;;10.38;3.70;;;7.20;99.90;;;;;;5075572;28;20083;-88
2022/01/07 00:33:59;;;;;;;11.18;4.15;;;4.10;99.90;;;;;;5092149;28;20040;-87
2022/01/07 00:36:24;;;;;;;13.52;4.82;;;6.60;99.90;;;;;;5092043;28;20181;-87
2022/01/07 00:39:05;;;;;;;8.32;4.40;;;6.50;99.90;;;;;;5093236;28;20507;-87
2022/01/07 00:41:31;;;;;;;5.68;3.58;;;6.30;99.90;;;;;;5092067;28;20032;-87
2022/01/07 00:43:57;;;;;;;11.80;4.40;;;6.90;99.90;;;;;;5075115;28;20036;-87
2022/01/07 00:46:23;;;;;;;8.05;3.75;;;6.20;99.90;;;;;;5091733;28;20064;-87
2022/01/07 00:48:49;;;;;;;8.73;4.30;;;7.30;99.90;;;;;;5075032;28;20086;-87
2022/01/07 00:51:14;;;;;;;11.23;4.18;;;6.70;99.90;;;;;;5091797;28;20184;-87
2022/01/07 00:53:41;;;;;;;10.43;4.78;;;3.80;99.90;;;;;;5074922;28;20039;-87
2022/01/07 00:56:07;;;;;;;11.98;5.15;;;7.30;99.90;;;;;;5075061;28;20137;-87
2022/01/07 00:58:33;;;;;;;10.45;4.85;;;6.80;99.90;;;;;;5075412;28;20078;-87
2022/01/07 01:00:58;;;;;;;10.25;5.03;;;4.80;99.90;;;;;;5074950;28;20089;-87
2022/01/07 01:03:24;;;;;;;8.80;5.35;;;3.70;99.90;;;;;;5075009;28;20036;-87
2022/01/07 01:05:50;;;;;;;7.43;4.43;;;6.30;99.90;;;;;;5092050;28;20460;-88
2022/01/07 01:08:16;;;;;;;13.35;4.55;;;7.10;99.90;;;;;;5075161;28;20477;-88
2022/01/07 01:10:41;;;;;;;8.27;4.93;;;6.90;99.90;;;;;;5077648;28;20404;-87
2022/01/07 01:13:07;;;;;;;10.90;5.20;;;6.60;99.90;;;;;;5095800;28;20082;-87
2022/01/07 01:15:33;;;;;;;8.23;4.95;;;6.50;99.90;;;;;;5079034;28;20066;-87
2022/01/07 01:17:59;;;;;;;6.53;4.50;;;6.00;99.90;;;;;;5079017;28;20081;-88
2022/01/07 01:20:26;;;;;;;9.23;4.78;;;6.10;99.90;;;;;;5095036;28;20534;-87
2022/01/07 01:22:52;;;;;;;14.93;5.30;;;6.70;99.90;;;;;;5096209;28;20048;-87
2022/01/07 01:25:18;;;;;;;11.38;4.93;;;6.30;99.90;;;;;;5061872;28;20044;-87
2022/01/07 01:27:44;;;;;;;11.18;6.05;;;4.70;99.90;;;;;;5061967;28;20044;-87
2022/01/07 01:30:12;;;;;;;9.07;5.40;;;5.90;99.90;;;;;;5079292;28;20098;-87
2022/01/07 01:32:39;;;;;;;9.32;5.35;;;3.90;99.90;;;;;;5078182;28;20130;-87
2022/01/07 01:35:07;;;;;;;13.10;5.32;;;7.00;99.90;;;;;;5078315;28;20499;-87
2022/01/07 01:37:33;;;;;;;9.50;5.68;;;4.90;99.90;;;;;;5061687;28;20055;-87
2022/01/07 01:39:58;;;;;;;11.20;6.40;;;6.60;99.90;;;;;;5078233;28;20044;-87
2022/01/07 01:42:24;;;;;;;22.98;5.80;;;7.20;99.90;;;;;;5061521;28;20404;-87
2022/01/07 01:44:51;;;;;;;7.93;5.50;;;6.20;99.90;;;;;;5061996;28;20043;-87
2022/01/07 01:47:17;;;;;;;10.93;5.32;;;6.40;99.90;;;;;;5062027;28;20047;-88
2022/01/07 01:49:42;;;;;;;10.93;5.55;;;5.70;99.90;;;;;;5078688;28;20089;-88
2022/01/07 01:52:08;;;;;;;7.45;4.75;;;4.30;99.90;;;;;;5078174;28;20495;-88
2022/01/07 01:54:34;;;;;;;6.70;4.65;;;6.40;99.90;;;;;;5078210;28;20047;-88
2022/01/07 01:57:00;;;;;;;10.07;5.13;;;4.80;99.90;;;;;;5079444;28;20040;-87
2022/01/07 01:59:28;;;;;;;10.10;5.13;;;5.10;99.90;;;;;;5078425;28;20514;-88
2022/01/07 02:01:54;;;;;;;9.30;5.80;;;6.00;99.90;;;;;;5061730;28;20054;-88
2022/01/07 02:04:20;;;;;;;8.35;4.88;;;4.30;99.90;;;;;;5078316;28;20040;-88
2022/01/07 02:06:46;;;;;;;8.25;5.22;;;7.00;99.90;;;;;;5077972;28;20188;-87
2022/01/07 02:09:12;;;;;;;8.73;5.55;;;7.00;99.90;;;;;;5078727;28;20044;-88
2022/01/07 02:11:38;;;;;;;9.25;6.18;;;4.20;99.90;;;;;;5078078;28;20047;-88
2022/01/07 02:14:03;;;;;;;11.88;6.10;;;4.90;99.90;;;;;;5078111;28;20048;-88
2022/01/07 02:16:29;;;;;;;10.05;6.13;;;6.20;99.90;;;;;;5078168;28;20416;-88
2022/01/07 02:22:12;;;;;;;8.80;5.97;;;5.40;99.90;;;;;;5094419;28;20051;-87
2022/01/07 02:24:38;;;;;;;15.20;5.97;;;6.90;99.90;;;;;;5077947;28;20048;-88
2022/01/07 02:27:05;;;;;;;9.75;6.60;;;5.90;99.90;;;;;;5077706;28;20100;-88
2022/01/07 02:29:31;;;;;;;10.63;6.82;;;5.00;99.90;;;;;;5061025;28;20048;-88
2022/01/07 02:31:57;;;;;;;11.75;7.38;;;6.50;99.90;;;;;;5061068;28;20082;-88
2022/01/07 02:34:23;;;;;;;10.55;6.97;;;5.00;99.90;;;;;;5060897;28;20048;-88
2022/01/07 02:36:48;;;;;;;11.23;6.80;;;6.80;99.90;;;;;;5060776;28;20117;-88
2022/01/07 02:39:15;;;;;;;10.80;5.80;;;6.60;99.90;;;;;;5077856;28;20078;-88
2022/01/07 02:41:41;;;;;;;15.95;6.63;;;5.90;99.90;;;;;;5077054;28;20432;-88
2022/01/07 02:44:07;;;;;;;11.35;6.45;;;4.90;99.90;;;;;;5077405;28;20135;-88
2022/01/07 02:46:32;;;;;;;10.60;6.72;;;7.20;99.90;;;;;;5060901;28;20040;-88
2022/01/07 02:48:59;;;;;;;12.50;6.35;;;6.00;99.90;;;;;;5077516;28;20052;-88
2022/01/07 02:51:25;;;;;;;7.90;5.90;;;6.00;99.90;;;;;;5077292;28;20094;-87
2022/01/07 02:53:50;;;;;;;13.13;7.32;;;7.70;99.90;;;;;;5077123;28;20431;-88
2022/01/07 02:56:16;;;;;;;12.75;7.45;;;7.60;99.90;;;;;;5060622;28;20131;-88
2022/01/07 02:58:42;;;;;;;11.02;6.80;;;7.50;99.90;;;;;;5077209;28;20507;-88
2022/01/07 03:01:08;;;;;;;13.73;7.40;;;7.40;99.90;;;;;;5077365;28;20143;-88
2022/01/07 03:03:33;;;;;;;14.75;6.88;;;7.30;99.90;;;;;;5060158;28;20051;-88
2022/01/07 03:05:59;;;;;;;14.15;6.70;;;3.70;99.90;;;;;;5077516;28;20047;-88
2022/01/07 03:08:26;;;;;;;16.10;7.55;;;7.50;99.90;;;;;;5076975;28;20044;-88
2022/01/07 03:10:52;;;;;;;16.10;7.53;;;7.50;99.90;;;;;;5077234;28;20397;-88
2022/01/07 03:13:17;;;;;;;11.68;7.00;;;7.50;99.90;;;;;;5060559;28;20114;-88
2022/01/07 03:15:43;;;;;;;10.18;7.28;;;6.60;99.90;;;;;;5060177;28;20047;-87
2022/01/07 03:18:09;;;;;;;9.02;6.63;;;7.80;99.90;;;;;;5076793;28;20093;-87
2022/01/07 03:20:38;;;;;;;14.30;6.80;;;8.00;99.90;;;;;;5076495;28;20507;-88
2022/01/07 03:23:06;;;;;;;8.43;6.63;;;6.90;99.90;;;;;;5076653;28;20442;-88
2022/01/07 03:25:31;;;;;;;14.82;7.32;;;4.50;99.90;;;;;;5076545;28;20130;-88
2022/01/07 03:27:57;;;;;;;16.25;7.05;;;6.50;99.90;;;;;;5059854;28;20068;-88
2022/01/07 03:30:23;;;;;;;9.30;5.53;;;4.90;99.90;;;;;;5076503;28;20044;-87
2022/01/07 03:32:49;;;;;;;12.20;6.68;;;4.90;99.90;;;;;;5075934;28;20044;-88
2022/01/07 03:35:17;;;;;;;10.32;6.38;;;6.70;99.90;;;;;;5076262;28;20051;-88
2022/01/07 03:37:43;;;;;;;8.98;6.57;;;7.50;99.90;;;;;;5059703;28;20101;-88
2022/01/07 03:40:11;;;;;;;13.98;7.22;;;5.30;99.90;;;;;;5059533;28;20048;-88
2022/01/07 03:42:37;;;;;;;12.85;8.57;;;5.70;99.90;;;;;;5059446;28;20044;-88
2022/01/07 03:45:05;;;;;;;14.15;7.45;;;6.80;99.90;;;;;;5076022;28;20047;-88
2022/01/07 03:47:31;;;;;;;13.43;6.50;;;4.40;99.90;;;;;;5076173;28;20042;-88
2022/01/07 03:49:57;;;;;;;10.43;6.53;;;3.10;99.90;;;;;;5059186;28;20044;-88
2022/01/07 03:52:22;;;;;;;7.72;6.35;;;6.60;99.90;;;;;;5058737;28;20048;-88
2022/01/07 03:54:50;;;;;;;15.80;7.95;;;7.30;99.90;;;;;;5075735;28;20047;-87
2022/01/07 03:57:16;;;;;;;15.52;7.25;;;5.40;99.90;;;;;;5076277;28;20396;-88
2022/01/07 03:59:41;;;;;;;12.05;7.55;;;6.60;99.90;;;;;;5076014;28;20036;-89
2022/01/07 04:02:07;;;;;;;12.30;8.52;;;6.30;99.90;;;;;;5076201;28;20044;-88
2022/01/07 04:04:33;;;;;;;16.52;7.55;;;6.70;99.90;;;;;;5075861;28;20525;-88
2022/01/07 04:06:59;;;;;;;13.90;8.98;;;5.20;99.90;;;;;;5059224;28;20451;-88
2022/01/07 04:09:24;;;;;;;14.98;8.68;;;6.30;99.90;;;;;;5076018;28;20561;-88
2022/01/07 04:11:51;;;;;;;18.17;8.43;;;6.30;99.90;;;;;;5060436;28;20136;-88
2022/01/07 04:14:17;;;;;;;12.48;8.15;;;8.00;99.90;;;;;;5075689;28;20059;-87
2022/01/07 04:16:42;;;;;;;13.13;8.25;;;6.10;99.90;;;;;;5075878;28;20032;-88
2022/01/07 04:19:08;;;;;;;12.70;7.63;;;6.70;99.90;;;;;;5075565;28;20076;-88
2022/01/07 04:21:34;;;;;;;14.68;10.48;;;6.30;99.90;;;;;;5074581;28;20468;-88
2022/01/07 04:23:59;;;;;;;12.98;9.05;;;6.40;99.90;;;;;;5058836;28;20055;-88
2022/01/07 04:26:25;;;;;;;14.98;8.88;;;7.00;99.90;;;;;;5075623;28;20051;-88
2022/01/07 04:28:51;;;;;;;18.40;10.93;;;6.80;99.90;;;;;;5075632;28;20044;-88
2022/01/07 04:31:16;;;;;;;11.27;7.57;;;7.60;99.90;;;;;;5075295;28;20496;-89
2022/01/07 04:33:42;;;;;;;14.90;9.18;;;7.00;99.90;;;;;;5076051;28;20055;-88
2022/01/07 04:36:08;;;;;;;13.63;9.00;;;5.90;99.90;;;;;;5075347;28;20074;-87
2022/01/07 04:38:34;;;;;;;11.95;8.07;;;5.90;99.90;;;;;;5058647;28;20050;-87
2022/01/07 04:41:00;;;;;;;12.85;9.07;;;4.50;99.90;;;;;;5075424;28;20098;-87
2022/01/07 04:43:25;;;;;;;13.98;8.60;;;6.50;99.90;;;;;;5058858;28;20043;-87
2022/01/07 04:45:51;;;;;;;12.05;9.00;;;7.00;99.90;;;;;;5058408;28;20480;-88
2022/01/07 04:48:18;;;;;;;18.52;9.63;;;7.80;99.90;;;;;;5058465;28;20040;-87
2022/01/07 04:50:43;;;;;;;10.52;7.25;;;7.40;99.90;;;;;;5075292;28;20044;-88
2022/01/07 04:53:09;;;;;;;12.63;7.55;;;4.50;99.90;;;;;;5075089;28;20036;-87
2022/01/07 04:55:38;;;;;;;12.77;8.55;;;6.70;99.90;;;;;;5058650;28;20086;-87
2022/01/07 04:58:06;;;;;;;10.77;7.75;;;4.60;99.90;;;;;;5075297;28;20043;-88
2022/01/07 05:00:33;;;;;;;15.00;8.68;;;6.40;99.90;;;;;;5074380;28;20040;-87
2022/01/07 05:02:58;;;;;;;14.52;9.15;;;6.60;99.90;;;;;;5074988;28;20044;-87
2022/01/07 05:05:24;;;;;;;14.77;8.88;;;7.70;99.90;;;;;;5075235;28;20381;-87
2022/01/07 05:07:50;;;;;;;13.07;8.02;;;4.90;99.90;;;;;;5075043;28;20474;-87
2022/01/07 05:10:16;;;;;;;14.05;8.43;;;8.60;99.90;;;;;;5075101;28;20430;-87
2022/01/07 05:12:42;;;;;;;15.93;9.90;;;6.40;99.90;;;;;;5058445;28;20044;-87
2022/01/07 05:15:09;;;;;;;12.60;8.25;;;8.20;99.90;;;;;;5075235;28;20395;-88
2022/01/07 05:17:35;;;;;;;16.63;9.38;;;5.20;99.90;;;;;;5057983;28;20040;-87
2022/01/07 05:20:01;;;;;;;11.88;9.13;;;7.60;99.90;;;;;;5058511;28;20054;-88
2022/01/07 05:22:28;;;;;;;18.13;9.85;;;4.80;99.90;;;;;;5074174;28;20500;-88
2022/01/07 05:24:53;;;;;;;13.18;9.65;;;8.70;99.90;;;;;;5058115;28;20058;-87
2022/01/07 05:27:19;;;;;;;21.20;11.15;;;8.70;99.90;;;;;;5075161;28;20126;-87
2022/01/07 05:29:45;;;;;;;16.42;9.18;;;7.30;99.90;;;;;;5074572;28;20048;-88
2022/01/07 05:32:11;;;;;;;16.15;10.07;;;7.40;99.90;;;;;;5075133;28;20036;-87
2022/01/07 05:34:36;;;;;;;14.05;9.75;;;7.00;99.90;;;;;;5074681;28;20480;-87
2022/01/07 05:37:02;;;;;;;11.32;8.95;;;5.90;99.90;;;;;;5074570;28;20082;-88
2022/01/07 05:39:28;;;;;;;13.88;10.55;;;6.50;99.90;;;;;;5074574;28;20505;-88
2022/01/07 05:41:54;;;;;;;14.70;9.50;;;8.80;99.90;;;;;;5091755;28;20048;-88
2022/01/07 05:44:21;;;;;;;15.80;10.45;;;8.80;99.90;;;;;;5074723;28;20040;-87
2022/01/07 05:46:47;;;;;;;15.18;9.45;;;7.10;99.90;;;;;;5058022;28;20524;-87
2022/01/07 05:49:13;;;;;;;17.20;9.57;;;7.60;99.90;;;;;;5074726;28;20152;-88
2022/01/07 05:51:41;;;;;;;12.00;9.15;;;7.80;99.90;;;;;;5075178;28;20131;-88
2022/01/07 05:54:07;;;;;;;13.07;8.38;;;7.50;99.90;;;;;;5074632;28;20400;-88
2022/01/07 05:56:33;;;;;;;13.30;8.57;;;5.10;99.90;;;;;;5058664;28;20153;-88
2022/01/07 05:58:58;;;;;;;17.38;8.88;;;6.90;99.90;;;;;;5078864;28;20528;-88
2022/01/07 06:01:24;;;;;;;20.15;10.35;;;7.30;99.90;;;;;;5061535;28;20482;-88
2022/01/07 06:03:50;;;;;;;20.10;9.40;;;6.00;99.90;;;;;;5078252;28;20048;-88
2022/01/07 06:06:15;;;;;;;16.95;9.63;;;9.00;99.90;;;;;;5061388;28;20040;-88
2022/01/07 06:08:41;;;;;;;14.82;7.95;;;7.20;99.90;;;;;;5077447;28;20409;-88
2022/01/07 06:11:07;;;;;;;15.38;8.13;;;7.60;99.90;;;;;;5061688;28;20044;-88
2022/01/07 06:13:33;;;;;;;9.80;8.15;;;5.60;99.90;;;;;;5061413;28;20094;-88
2022/01/07 06:15:59;;;;;;;12.80;8.88;;;7.50;99.90;;;;;;5078958;28;20048;-88
2022/01/07 06:18:24;;;;;;;13.38;7.70;;;7.30;99.90;;;;;;5077964;28;20040;-88
2022/01/07 06:20:50;;;;;;;14.30;9.27;;;8.10;99.90;;;;;;5077602;28;20489;-88
2022/01/07 06:23:16;;;;;;;12.75;8.25;;;6.80;99.90;;;;;;5076612;28;20426;-88
2022/01/07 06:25:44;;;;;;;15.40;8.32;;;7.70;99.90;;;;;;5061286;28;20055;-88
2022/01/07 06:28:10;;;;;;;15.20;8.70;;;7.70;99.90;;;;;;5061098;28;20055;-89
2022/01/07 06:30:36;;;;;;;15.20;8.73;;;4.90;99.90;;;;;;5078248;28;20449;-88
2022/01/07 06:33:02;;;;;;;12.93;8.05;;;9.00;99.90;;;;;;5077686;28;20082;-88
2022/01/07 06:35:28;;;;;;;10.90;8.23;;;7.50;99.90;;;;;;5061126;28;20434;-88
2022/01/07 06:37:54;;;;;;;16.08;7.68;;;5.30;99.90;;;;;;5077462;28;20048;-88
2022/01/07 06:40:19;;;;;;;12.75;8.48;;;9.00;99.90;;;;;;5077813;28;20078;-88
2022/01/07 06:42:45;;;;;;;11.57;8.00;;;8.90;99.90;;;;;;5061067;28;20101;-88
2022/01/07 06:45:11;;;;;;;11.32;7.40;;;8.70;99.90;;;;;;5077904;28;20051;-88
2022/01/07 06:47:37;;;;;;;14.00;8.15;;;8.40;99.90;;;;;;5061032;28;20066;-89
2022/01/07 06:50:05;;;;;;;14.57;7.40;;;9.00;99.90;;;;;;5060934;28;20193;-88
2022/01/07 06:52:31;;;;;;;14.27;7.60;;;5.80;99.90;;;;;;5060794;28;20052;-88
2022/01/07 06:54:59;;;;;;;17.92;8.20;;;8.10;99.90;;;;;;5077611;28;20051;-88
2022/01/07 06:57:25;;;;;;;12.50;6.80;;;8.50;99.90;;;;;;5077370;28;20040;-88
2022/01/07 06:59:51;;;;;;;12.55;7.03;;;7.90;99.90;;;;;;5078357;28;20077;-86
2022/01/07 07:02:17;;;;;;;18.95;8.07;;;6.50;99.90;;;;;;5062813;28;20044;-86
2022/01/07 07:04:44;;;;;;;12.32;7.50;;;6.50;99.90;;;;;;5077631;28;20048;-86
2022/01/07 07:07:10;;;;;;;14.00;6.78;;;7.20;99.90;;;;;;5095336;28;20067;-87
2022/01/07 07:09:36;;;;;;;12.40;7.07;;;8.90;99.90;;;;;;5078216;28;20040;-88
2022/01/07 07:12:02;;;;;;;13.63;7.00;;;5.70;99.90;;;;;;5060596;28;20534;-90
2022/01/07 07:14:28;;;;;;;10.63;6.65;;;5.00;99.90;;;;;;5077349;28;20043;-90
2022/01/07 07:16:54;;;;;;;22.63;7.90;;;8.00;99.90;;;;;;5064029;28;20040;-89
2022/01/07 07:19:21;;;;;;;13.05;5.38;;;8.10;99.90;;;;;;5080749;28;20039;-91
2022/01/07 07:21:47;;;;;;;16.00;6.50;;;8.00;99.90;;;;;;5080526;28;20040;-90
2022/01/07 07:24:13;;;;;;;17.23;6.32;;;6.20;99.90;;;;;;5079833;28;20072;-80
2022/01/07 07:26:38;;;;;;;13.50;5.43;;;5.80;99.90;;;;;;5095241;28;20123;-88
2022/01/07 07:29:04;;;;;;;11.05;4.82;;;7.60;99.90;;;;;;5059875;28;20476;-89
2022/01/07 07:31:31;;;;;;;9.50;4.80;;;5.00;99.90;;;;;;5076838;28;20080;-89
2022/01/07 07:36:44;;;;;;;10.88;5.63;;;6.80;99.90;;;;;;5093748;28;20048;-88
2022/01/07 07:39:15;;;;;;;16.38;6.45;;;7.30;99.90;;;;;;5093121;28;20105;-88
2022/01/07 07:41:42;;;;;;;16.75;6.75;;;7.00;99.90;;;;;;5093028;28;20043;-87
2022/01/07 07:44:08;;;;;;;21.98;7.05;;;6.60;99.90;;;;;;5076543;28;20340;-88
2022/01/07 07:46:36;;;;;;;15.55;6.35;;;6.30;99.90;;;;;;5059432;28;20042;-86
2022/01/07 07:49:04;;;;;;;13.40;5.90;;;8.50;99.90;;;;;;5076333;28;20078;-89
2022/01/07 07:51:30;;;;;;;19.70;6.13;;;7.20;99.90;;;;;;5059378;28;20071;-90
2022/01/07 07:53:56;;;;;;;13.40;5.47;;;8.20;99.90;;;;;;5057791;28;20428;-90
2022/01/07 07:56:22;;;;;;;23.27;7.32;;;9.00;99.90;;;;;;5059700;28;20063;-89
2022/01/07 07:58:48;;;;;;;16.35;5.65;;;7.10;99.90;;;;;;5076119;28;20122;-89
2022/01/07 08:01:15;;;;;;;18.02;6.38;;;6.90;99.90;;;;;;5059631;28;20441;-92
2022/01/07 08:03:41;;;;;;;17.73;5.22;;;7.30;99.90;;;;;;5059926;28;20036;-86
2022/01/07 08:06:07;;;;;;;14.68;5.55;;;6.40;99.90;;;;;;5060471;28;20146;-89
2022/01/07 08:08:33;;;;;;;16.63;3.78;;;5.70;99.90;;;;;;5059446;28;20112;-85
2022/01/07 08:11:02;;;;;;;14.23;2.72;;;7.90;99.90;;;;;;5093045;28;20052;-90
2022/01/07 08:16:00;;;;;;;16.27;2.55;;;8.40;99.90;;;;;;5077251;28;20814;-90
2022/01/07 08:18:29;;;;;;;12.82;2.65;;;6.30;99.90;;;;;;5077586;28;20071;-86
2022/01/07 08:20:56;;;;;;;23.45;2.95;;;7.50;99.90;;;;;;5075637;28;20056;-88
2022/01/07 08:23:22;;;;;;;12.10;2.53;;;5.50;99.90;;;;;;5074787;28;20059;-86
2022/01/07 08:25:48;;;;;;;14.02;2.35;;;6.70;99.90;;;;;;5091929;28;20142;-86
2022/01/07 08:28:16;;;;;;;19.17;3.42;;;5.50;99.90;;;;;;5074270;28;20136;-89
2022/01/07 08:36:14;;;;;;;11.98;2.28;;;6.50;99.90;;;;;;5057602;28;20071;-87
2022/01/07 08:38:40;;;;;;;17.67;3.53;;;7.20;99.90;;;;;;5076182;28;20044;-90
2022/01/07 08:41:06;;;;;;;23.35;8.98;;;5.70;99.90;;;;;;5059682;28;20128;-87
2022/01/07 08:43:32;;;;;;;25.45;3.92;;;5.50;99.90;;;;;;5075707;28;20044;-88
2022/01/07 08:45:59;;;;;;;19.45;4.10;;;5.70;99.90;;;;;;5076363;28;20036;-88
2022/01/07 08:48:27;;;;;;;25.02;3.88;;;6.20;99.90;;;;;;5058980;28;20139;-88
2022/01/07 08:50:53;;;;;;;16.27;4.20;;;7.40;99.90;;;;;;5059653;28;20040;-87
2022/01/07 08:53:20;;;;;;;14.13;3.15;;;6.50;99.90;;;;;;5059451;28;20055;-92
2022/01/07 08:55:46;;;;;;;22.42;5.07;;;6.50;99.90;;;;;;5059664;28;20097;-88
2022/01/07 08:58:12;;;;;;;14.32;3.42;;;5.70;99.90;;;;;;5075581;28;20052;-88
2022/01/07 09:00:38;;;;;;;22.80;4.35;;;6.00;99.90;;;;;;5059010;28;20449;-87
2022/01/07 09:03:04;;;;;;;16.10;4.05;;;5.40;99.90;;;;;;5075128;28;20493;-87
2022/01/07 09:05:30;;;;;;;18.02;4.68;;;6.50;99.90;;;;;;5059450;28;20051;-89
2022/01/07 09:07:57;;;;;;;12.45;3.78;;;5.80;99.90;;;;;;5058784;28;20353;-87
2022/01/07 09:10:23;;;;;;;21.52;4.47;;;6.30;99.90;;;;;;5057828;28;20044;-87
2022/01/07 09:12:49;;;;;;;20.20;4.30;;;7.10;99.90;;;;;;5058870;28;20056;-86
2022/01/07 09:15:15;;;;;;;14.15;3.00;;;;;;;;;;5076301;28;20047;-87
2022/01/07 09:17:42;;;;;;;13.38;3.10;;;5.30;99.90;;;;;;5077051;28;20048;-88
2022/01/07 09:20:09;;;;;;;12.50;3.65;;;4.00;99.90;;;;;;5059115;28;20040;-87
2022/01/07 09:22:36;;;;;;;13.25;3.78;;;5.50;99.90;;;;;;5058759;28;20544;-91
2022/01/07 09:25:04;;;;;;;13.35;4.45;;;3.90;99.90;;;;;;5075388;28;20052;-91
2022/01/07 09:27:30;;;;;;;19.35;6.15;;;6.40;99.90;;;;;;5093670;28;20123;-92
2022/01/07 09:29:56;;;;;;;16.63;4.38;;;7.50;99.90;;;;;;5060811;28;20102;-91
2022/01/07 09:32:22;;;;;;;26.25;5.10;;;6.50;99.90;;;;;;5061512;28;20528;-91
2022/01/07 09:34:48;;;;;;;20.02;4.53;;;6.20;99.90;;;;;;5062963;28;20040;-83
2022/01/07 09:37:14;;;;;;;15.63;4.95;;;7.90;99.90;;;;;;5078998;28;20395;-88
2022/01/07 09:39:40;;;;;;;24.00;5.00;;;5.60;99.90;;;;;;5062485;28;20046;-86
2022/01/07 09:42:07;;;;;;;27.25;5.13;;;6.30;99.90;;;;;;5062496;28;20036;-88
2022/01/07 09:44:41;;;;;;;28.15;4.07;;;5.40;99.90;;;;;;5097499;28;20089;-87
2022/01/07 09:47:14;;;;;;;10.60;2.28;;;5.20;99.90;;;;;;5062837;28;20051;-93
2022/01/07 09:49:40;;;;;;;20.13;2.72;;;6.10;99.90;;;;;;5062621;28;20134;-86
2022/01/07 09:52:08;;;;;;;9.75;2.58;;;5.40;99.90;;;;;;5062030;28;20048;-88
2022/01/07 09:54:36;;;;;;;14.00;2.42;;;5.20;99.90;;;;;;5062059;28;20093;-91
2022/01/07 09:57:04;;;;;;;15.80;2.42;;;6.70;99.90;;;;;;5061990;28;20048;-88
2022/01/07 09:59:30;;;;;;;15.45;2.88;;;6.20;99.90;;;;;;5063026;28;20054;-88
2022/01/07 10:01:58;;;;;;;15.02;2.55;;;6.50;99.90;;;;;;5061871;28;20077;-86
2022/01/07 10:04:28;;;;;;;22.92;3.35;;;6.50;99.90;;;;;;5061461;28;20058;-86
2022/01/07 10:07:17;;;;;;;18.70;3.33;;;9.10;99.90;;;;;;5061744;28;20123;-86
2022/01/07 10:09:57;;;;;;;22.98;3.17;;;6.10;99.90;;;;;;5072879;28;20126;-88
2022/01/07 10:12:24;;;;;;;19.83;3.10;;;6.90;99.90;;;;;;5082321;28;20047;-88
2022/01/07 10:15:12;;;;;;;18.50;3.42;;;6.40;99.90;;;;;;5082388;28;20054;-88
2022/01/07 10:17:39;;;;;;;15.02;3.83;;;6.90;99.90;;;;;;5081900;28;20047;-88
2022/01/07 10:20:06;;;;;;;16.23;3.28;;;7.20;99.90;;;;;;5081493;28;20095;-88
2022/01/07 10:22:51;;;;;;;20.88;3.60;;;7.00;99.90;;;;;;5081964;28;20083;-88
2022/01/07 10:25:23;;;;;;;13.07;2.45;;;7.40;99.90;;;;;;5080905;28;20044;-88
2022/01/07 10:27:49;;;;;;;15.38;2.35;;;9.10;99.90;;;;;;5084284;28;20127;-88
2022/01/07 10:30:25;;;;;;;17.65;2.08;;;7.10;99.90;;;;;;5063522;28;20048;-87
2022/01/07 10:32:52;;;;;;;8.75;1.80;;;7.10;99.90;;;;;;5076205;28;20445;-85
2022/01/07 10:35:20;;;;;;;13.05;1.77;;;8.50;99.90;;;;;;5078418;28;20048;-86
2022/01/07 10:37:55;;;;;;;12.75;2.05;;;9.50;99.90;;;;;;5061221;28;20049;-86
2022/01/07 10:40:36;;;;;;;13.00;2.07;;;7.30;99.90;;;;;;5061825;28;20075;-87
2022/01/07 10:43:10;;;;;;;9.82;2.05;;;7.10;99.90;;;;;;5059658;28;20082;-88
2022/01/07 10:45:38;;;;;;;4.85;1.65;;;7.30;99.90;;;;;;5065492;28;20430;-89
2022/01/07 10:48:06;;;;;;;5.82;1.42;;;6.90;99.90;;;;;;5062105;28;20048;-87
2022/01/07 10:50:38;;;;;;;5.00;1.30;;;6.70;99.90;;;;;;5061735;28;20036;-87
2022/01/07 10:53:14;;;;;;;7.82;1.70;;;6.60;99.90;;;;;;5061214;28;20052;-90
2022/01/07 10:55:42;;;;;;;8.90;1.60;;;6.60;99.90;;;;;;5061705;28;20044;-89
2022/01/07 10:58:08;;;;;;;12.77;2.38;;;6.60;99.90;;;;;;5060819;28;20151;-89
2022/01/07 11:00:36;;;;;;;10.45;2.40;;;6.30;99.90;;;;;;5061354;28;20226;-89
2022/01/07 11:03:07;;;;;;;19.45;2.33;;;6.30;99.90;;;;;;5070067;28;20032;-89
2022/01/07 11:05:33;;;;;;;12.90;2.42;;;8.00;99.90;;;;;;5062121;28;20442;-88
2022/01/07 11:08:01;;;;;;;11.88;1.77;;;6.00;99.90;;;;;;5066257;28;20040;-88
2022/01/07 11:10:29;;;;;;;14.55;2.10;;;5.70;99.90;;;;;;5061112;28;20101;-87
2022/01/07 11:12:57;;;;;;;10.27;1.83;;;5.80;99.90;;;;;;5061058;28;20071;-89
2022/01/07 11:15:23;;;;;;;12.95;2.33;;;6.10;99.90;;;;;;5060845;28;20048;-90
2022/01/07 11:17:49;;;;;;;10.18;2.08;;;;;;;;;;5055332;28;20036;-90
2022/01/07 11:20:20;;;;;;;10.90;1.73;;;5.90;99.90;;;;;;5072722;28;20131;-88
2022/01/07 11:22:48;;;;;;;8.07;2.05;;;6.30;99.90;;;;;;5061132;28;20075;-87
2022/01/07 11:25:15;;;;;;;12.90;1.98;;;7.80;99.90;;;;;;5060339;28;20066;-84
2022/01/07 11:27:48;;;;;;;11.50;2.08;;;5.90;99.90;;;;;;5060372;28;20054;-86
2022/01/07 11:30:18;;;;;;;10.07;2.08;;;6.10;99.90;;;;;;5060664;28;20044;-90
2022/01/07 11:32:46;;;;;;;9.55;1.80;;;5.60;99.90;;;;;;5077287;28;20389;-85
2022/01/07 11:35:19;;;;;;;12.90;2.10;;;6.00;99.90;;;;;;5060286;28;20474;-86
2022/01/07 11:37:47;;;;;;;17.50;3.13;;;6.20;99.90;;;;;;5052723;28;20194;-85
2022/01/07 11:40:28;;;;;;;12.23;1.60;;;6.20;99.90;;;;;;5092731;28;20044;-87
2022/01/07 11:42:57;;;;;;;13.13;2.13;;;6.40;99.90;;;;;;5055622;28;20052;-85
2022/01/07 11:45:28;;;;;;;11.10;1.77;;;5.30;99.90;;;;;;5059762;28;20048;-85
2022/01/07 11:47:56;;;;;;;13.82;2.38;;;6.50;99.90;;;;;;5059900;28;20040;-85
2022/01/07 11:50:23;;;;;;;18.42;2.38;;;6.70;99.90;;;;;;5084377;28;20048;-87
2022/01/07 11:53:02;;;;;;;10.13;2.25;;;7.10;99.90;;;;;;5059748;28;20069;-85
2022/01/07 11:55:33;;;;;;;13.27;1.88;;;7.30;99.90;;;;;;5092452;28;20052;-83
2022/01/07 11:58:03;;;;;;;6.53;1.73;;;6.70;99.90;;;;;;5080521;28;20077;-86
2022/01/07 12:00:56;;;;;;;13.25;2.10;;;8.50;99.90;;;;;;5076375;28;20044;-85
2022/01/07 12:03:35;;;;;;;10.70;2.20;;;7.10;99.90;;;;;;5063223;28;20562;-85
2022/01/07 12:06:24;;;;;;;20.10;2.35;;;7.30;99.90;;;;;;5059235;28;20046;-87
2022/01/07 12:09:03;;;;;;;10.23;2.50;;;7.10;99.90;;;;;;5093250;28;20032;-90
2022/01/07 12:11:42;;;;;;;11.98;2.33;;;6.60;99.90;;;;;;5059303;28;20071;-85
2022/01/07 12:14:15;;;;;;;16.95;3.33;;;7.00;99.90;;;;;;5059359;28;20040;-87
2022/01/07 12:16:43;;;;;;;9.07;2.25;;;6.70;99.90;;;;;;5076603;28;20434;-87
2022/01/07 12:19:12;;;;;;;16.65;2.58;;;7.70;99.90;;;;;;5076643;28;20044;-89
2022/01/07 12:21:40;;;;;;;16.65;2.72;;;7.20;99.90;;;;;;5059990;28;20500;-90
2022/01/07 12:24:15;;;;;;;18.50;2.85;;;8.30;99.90;;;;;;5059801;28;20151;-94
2022/01/07 12:26:44;;;;;;;10.93;1.92;;;7.30;99.90;;;;;;5061375;28;20483;-88
2022/01/07 12:29:16;;;;;;;16.83;2.33;;;7.00;99.90;;;;;;5076947;28;20040;-89
2022/01/07 12:31:49;;;;;;;12.88;2.65;;;8.20;99.90;;;;;;5059790;28;20048;-88
2022/01/07 12:34:27;;;;;;;12.15;2.88;;;7.30;99.90;;;;;;5076013;28;20044;-88
2022/01/07 12:36:56;;;;;;;22.58;3.10;;;7.90;99.90;;;;;;5092749;28;20173;-86
2022/01/07 12:39:27;;;;;;;14.98;2.58;;;7.00;99.90;;;;;;5075568;28;20040;-86
2022/01/07 12:41:55;;;;;;;18.85;3.00;;;7.00;99.90;;;;;;5075486;28;20150;-89
2022/01/07 12:44:21;;;;;;;18.02;2.42;;;7.00;99.90;;;;;;5074493;28;20039;-88
2022/01/07 12:46:53;;;;;;;15.48;2.50;;;7.20;99.90;;;;;;5059463;28;20047;-88
2022/01/07 12:49:19;;;;;;;21.10;4.60;;;9.90;99.90;;;;;;5058581;28;20488;-88
2022/01/07 12:52:02;;;;;;;12.55;2.95;;;7.10;99.90;;;;;;5056295;28;20145;-86
2022/01/07 12:54:31;;;;;;;14.93;2.42;;;7.20;99.90;;;;;;5057834;28;20059;-86
2022/01/07 12:56:57;;;;;;;21.40;2.97;;;7.20;99.90;;;;;;5055317;28;20419;-87
2022/01/07 12:59:25;;;;;;;19.42;2.63;;;7.30;99.90;;;;;;5052325;28;20055;-88
2022/01/07 13:01:54;;;;;;;22.55;3.28;;;7.10;99.90;;;;;;5073164;28;20434;-87
2022/01/07 13:04:22;;;;;;;18.50;2.70;;;6.60;99.90;;;;;;5062578;28;20050;-85